sensor_id;sensor_type;location;lat;lon;timestamp;P1;P2;P0
47079;PMS5003;33067;49.296;14.470;2023-07-02T00:00:23;21;21;
47079;PMS5003;33067;49.296;14.470;2023-07-02T00:02:47;20;19;
47079;PMS5003;33067;49.296;14.470;2023-07-02T00:05:13;17;17;
47079;PMS5003;33067;49.296;14.470;2023-07-02T00:07:39;18;18;
47079;PMS5003;33067;49.296;14.470;2023-07-02T00:10:05;17;16;
47079;PMS5003;33067;49.296;14.470;2023-07-02T00:12:31;19;19;
47079;PMS5003;33067;49.296;14.470;2023-07-02T00:14:55;13;13;
47079;PMS5003;33067;49.296;14.470;2023-07-02T00:17:20;18;18;
47079;PMS5003;33067;49.296;14.470;2023-07-02T00:19:45;18;18;
47079;PMS5003;33067;49.296;14.470;2023-07-02T00:22:12;17;17;
47079;PMS5003;33067;49.296;14.470;2023-07-02T00:24:36;19;18;
47079;PMS5003;33067;49.296;14.470;2023-07-02T00:27:02;15;15;
47079;PMS5003;33067;49.296;14.470;2023-07-02T00:29:28;19;18;
47079;PMS5003;33067;49.296;14.470;2023-07-02T00:31:54;15;15;
47079;PMS5003;33067;49.296;14.470;2023-07-02T00:34:19;16;15;
47079;PMS5003;33067;49.296;14.470;2023-07-02T00:36:45;19;17;
47079;PMS5003;33067;49.296;14.470;2023-07-02T00:39:11;16;15;
47079;PMS5003;33067;49.296;14.470;2023-07-02T00:41:37;17;17;
47079;PMS5003;33067;49.296;14.470;2023-07-02T00:44:03;24;22;
47079;PMS5003;33067;49.296;14.470;2023-07-02T00:46:28;15;15;
47079;PMS5003;33067;49.296;14.470;2023-07-02T00:48:54;14;14;
47079;PMS5003;33067;49.296;14.470;2023-07-02T00:51:20;14;14;
47079;PMS5003;33067;49.296;14.470;2023-07-02T00:53:46;21;19;
47079;PMS5003;33067;49.296;14.470;2023-07-02T00:56:10;15;13;
47079;PMS5003;33067;49.296;14.470;2023-07-02T00:58:37;17;15;
47079;PMS5003;33067;49.296;14.470;2023-07-02T01:01:01;12;12;
47079;PMS5003;33067;49.296;14.470;2023-07-02T01:03:27;20;19;
47079;PMS5003;33067;49.296;14.470;2023-07-02T01:05:53;15;15;
47079;PMS5003;33067;49.296;14.470;2023-07-02T01:08:19;13;13;
47079;PMS5003;33067;49.296;14.470;2023-07-02T01:10:44;16;16;
47079;PMS5003;33067;49.296;14.470;2023-07-02T01:13:11;16;16;
47079;PMS5003;33067;49.296;14.470;2023-07-02T01:15:36;19;19;
47079;PMS5003;33067;49.296;14.470;2023-07-02T01:18:01;12;12;
47079;PMS5003;33067;49.296;14.470;2023-07-02T01:20:27;16;16;
47079;PMS5003;33067;49.296;14.470;2023-07-02T01:22:52;17;17;
47079;PMS5003;33067;49.296;14.470;2023-07-02T01:25:18;15;14;
47079;PMS5003;33067;49.296;14.470;2023-07-02T01:27:44;11;10;
47079;PMS5003;33067;49.296;14.470;2023-07-02T01:30:10;12;12;
47079;PMS5003;33067;49.296;14.470;2023-07-02T01:32:36;10;10;
47079;PMS5003;33067;49.296;14.470;2023-07-02T01:35:01;12;12;
47079;PMS5003;33067;49.296;14.470;2023-07-02T01:37:27;13;12;
47079;PMS5003;33067;49.296;14.470;2023-07-02T01:39:52;10;10;
47079;PMS5003;33067;49.296;14.470;2023-07-02T01:42:18;11;9;
47079;PMS5003;33067;49.296;14.470;2023-07-02T01:44:45;7;7;
47079;PMS5003;33067;49.296;14.470;2023-07-02T01:47:10;9;9;
47079;PMS5003;33067;49.296;14.470;2023-07-02T01:49:36;9;9;
47079;PMS5003;33067;49.296;14.470;2023-07-02T01:52:01;9;9;
47079;PMS5003;33067;49.296;14.470;2023-07-02T01:54:27;12;11;
47079;PMS5003;33067;49.296;14.470;2023-07-02T01:56:52;11;11;
47079;PMS5003;33067;49.296;14.470;2023-07-02T01:59:18;10;10;
47079;PMS5003;33067;49.296;14.470;2023-07-02T02:01:43;10;10;
47079;PMS5003;33067;49.296;14.470;2023-07-02T02:04:09;8;8;
47079;PMS5003;33067;49.296;14.470;2023-07-02T02:06:35;10;10;
47079;PMS5003;33067;49.296;14.470;2023-07-02T02:09:01;9;9;
47079;PMS5003;33067;49.296;14.470;2023-07-02T02:13:01;11;10;
47079;PMS5003;33067;49.296;14.470;2023-07-02T02:15:26;9;9;
47079;PMS5003;33067;49.296;14.470;2023-07-02T02:17:52;8;8;
47079;PMS5003;33067;49.296;14.470;2023-07-02T02:20:18;7;6;
47079;PMS5003;33067;49.296;14.470;2023-07-02T02:22:43;10;10;
47079;PMS5003;33067;49.296;14.470;2023-07-02T02:25:09;9;9;
47079;PMS5003;33067;49.296;14.470;2023-07-02T02:27:35;9;8;
47079;PMS5003;33067;49.296;14.470;2023-07-02T02:30:02;8;8;
47079;PMS5003;33067;49.296;14.470;2023-07-02T02:32:27;9;9;
47079;PMS5003;33067;49.296;14.470;2023-07-02T02:34:53;7;7;
47079;PMS5003;33067;49.296;14.470;2023-07-02T02:37:20;7;7;
47079;PMS5003;33067;49.296;14.470;2023-07-02T02:39:44;7;7;
47079;PMS5003;33067;49.296;14.470;2023-07-02T02:42:10;4;4;
47079;PMS5003;33067;49.296;14.470;2023-07-02T02:44:36;7;7;
47079;PMS5003;33067;49.296;14.470;2023-07-02T02:47:04;8;8;
47079;PMS5003;33067;49.296;14.470;2023-07-02T02:49:27;6;6;
47079;PMS5003;33067;49.296;14.470;2023-07-02T02:51:53;6;5;
47079;PMS5003;33067;49.296;14.470;2023-07-02T02:54:19;4;4;
47079;PMS5003;33067;49.296;14.470;2023-07-02T02:56:46;7;5;
47079;PMS5003;33067;49.296;14.470;2023-07-02T02:59:11;7;5;
47079;PMS5003;33067;49.296;14.470;2023-07-02T03:01:37;4;4;
47079;PMS5003;33067;49.296;14.470;2023-07-02T03:04:03;5;5;
47079;PMS5003;33067;49.296;14.470;2023-07-02T03:06:29;6;6;
47079;PMS5003;33067;49.296;14.470;2023-07-02T03:08:54;6;6;
47079;PMS5003;33067;49.296;14.470;2023-07-02T03:11:20;5;5;
47079;PMS5003;33067;49.296;14.470;2023-07-02T03:13:46;3;3;
47079;PMS5003;33067;49.296;14.470;2023-07-02T03:16:12;4;4;
47079;PMS5003;33067;49.296;14.470;2023-07-02T03:18:38;4;4;
47079;PMS5003;33067;49.296;14.470;2023-07-02T03:21:04;5;5;
47079;PMS5003;33067;49.296;14.470;2023-07-02T03:23:29;2;2;
47079;PMS5003;33067;49.296;14.470;2023-07-02T03:25:55;3;3;
47079;PMS5003;33067;49.296;14.470;2023-07-02T03:28:21;4;4;
47079;PMS5003;33067;49.296;14.470;2023-07-02T03:30:47;3;3;
47079;PMS5003;33067;49.296;14.470;2023-07-02T03:33:13;4;4;
47079;PMS5003;33067;49.296;14.470;2023-07-02T03:35:39;4;4;
47079;PMS5003;33067;49.296;14.470;2023-07-02T03:38:05;4;4;
47079;PMS5003;33067;49.296;14.470;2023-07-02T03:40:30;4;4;
47079;PMS5003;33067;49.296;14.470;2023-07-02T03:42:56;5;5;
47079;PMS5003;33067;49.296;14.470;2023-07-02T03:45:22;5;5;
47079;PMS5003;33067;49.296;14.470;2023-07-02T03:47:48;4;4;
47079;PMS5003;33067;49.296;14.470;2023-07-02T03:50:14;5;5;
47079;PMS5003;33067;49.296;14.470;2023-07-02T03:52:39;6;5;
47079;PMS5003;33067;49.296;14.470;2023-07-02T03:55:05;5;5;
47079;PMS5003;33067;49.296;14.470;2023-07-02T03:57:30;5;4;
47079;PMS5003;33067;49.296;14.470;2023-07-02T03:59:56;5;5;
47079;PMS5003;33067;49.296;14.470;2023-07-02T04:02:22;5;4;
47079;PMS5003;33067;49.296;14.470;2023-07-02T04:04:48;5;5;
47079;PMS5003;33067;49.296;14.470;2023-07-02T04:07:13;5;5;
47079;PMS5003;33067;49.296;14.470;2023-07-02T04:09:38;4;4;
47079;PMS5003;33067;49.296;14.470;2023-07-02T04:12:03;5;5;
47079;PMS5003;33067;49.296;14.470;2023-07-02T04:14:28;7;5;
47079;PMS5003;33067;49.296;14.470;2023-07-02T04:16:53;5;5;
47079;PMS5003;33067;49.296;14.470;2023-07-02T04:19:18;4;4;
47079;PMS5003;33067;49.296;14.470;2023-07-02T04:21:43;3;3;
47079;PMS5003;33067;49.296;14.470;2023-07-02T04:24:08;3;3;
47079;PMS5003;33067;49.296;14.470;2023-07-02T04:26:33;3;3;
47079;PMS5003;33067;49.296;14.470;2023-07-02T04:28:59;4;4;
47079;PMS5003;33067;49.296;14.470;2023-07-02T04:31:24;5;4;
47079;PMS5003;33067;49.296;14.470;2023-07-02T04:33:48;3;3;
47079;PMS5003;33067;49.296;14.470;2023-07-02T04:36:13;3;3;
47079;PMS5003;33067;49.296;14.470;2023-07-02T04:38:39;4;4;
47079;PMS5003;33067;49.296;14.470;2023-07-02T04:41:04;4;4;
47079;PMS5003;33067;49.296;14.470;2023-07-02T04:43:29;3;3;
47079;PMS5003;33067;49.296;14.470;2023-07-02T04:45:54;3;3;
47079;PMS5003;33067;49.296;14.470;2023-07-02T04:48:20;4;4;
47079;PMS5003;33067;49.296;14.470;2023-07-02T04:50:45;3;3;
47079;PMS5003;33067;49.296;14.470;2023-07-02T04:53:11;2;2;
47079;PMS5003;33067;49.296;14.470;2023-07-02T04:55:37;3;3;
47079;PMS5003;33067;49.296;14.470;2023-07-02T04:58:03;3;2;
47079;PMS5003;33067;49.296;14.470;2023-07-02T05:00:29;2;2;
47079;PMS5003;33067;49.296;14.470;2023-07-02T05:02:55;3;3;
47079;PMS5003;33067;49.296;14.470;2023-07-02T05:05:20;3;3;
47079;PMS5003;33067;49.296;14.470;2023-07-02T05:07:46;5;5;
47079;PMS5003;33067;49.296;14.470;2023-07-02T05:10:12;14;14;
47079;PMS5003;33067;49.296;14.470;2023-07-02T05:12:38;12;12;
47079;PMS5003;33067;49.296;14.470;2023-07-02T05:15:03;27;27;
47079;PMS5003;33067;49.296;14.470;2023-07-02T05:17:28;24;23;
47079;PMS5003;33067;49.296;14.470;2023-07-02T05:19:54;16;16;
47079;PMS5003;33067;49.296;14.470;2023-07-02T05:22:19;5;5;
47079;PMS5003;33067;49.296;14.470;2023-07-02T05:24:46;4;4;
47079;PMS5003;33067;49.296;14.470;2023-07-02T05:27:10;6;4;
47079;PMS5003;33067;49.296;14.470;2023-07-02T05:29:36;6;6;
47079;PMS5003;33067;49.296;14.470;2023-07-02T05:32:02;4;4;
47079;PMS5003;33067;49.296;14.470;2023-07-02T05:34:28;5;4;
47079;PMS5003;33067;49.296;14.470;2023-07-02T05:36:54;5;5;
47079;PMS5003;33067;49.296;14.470;2023-07-02T05:39:19;4;4;
47079;PMS5003;33067;49.296;14.470;2023-07-02T05:41:46;6;6;
47079;PMS5003;33067;49.296;14.470;2023-07-02T05:44:11;5;5;
47079;PMS5003;33067;49.296;14.470;2023-07-02T05:46:37;5;5;
47079;PMS5003;33067;49.296;14.470;2023-07-02T05:49:02;4;4;
47079;PMS5003;33067;49.296;14.470;2023-07-02T05:51:28;4;4;
47079;PMS5003;33067;49.296;14.470;2023-07-02T05:53:54;6;6;
47079;PMS5003;33067;49.296;14.470;2023-07-02T05:56:20;5;5;
47079;PMS5003;33067;49.296;14.470;2023-07-02T05:58:46;7;6;
47079;PMS5003;33067;49.296;14.470;2023-07-02T06:01:11;7;6;
47079;PMS5003;33067;49.296;14.470;2023-07-02T06:03:39;6;6;
47079;PMS5003;33067;49.296;14.470;2023-07-02T06:06:03;5;5;
47079;PMS5003;33067;49.296;14.470;2023-07-02T06:08:29;9;9;
47079;PMS5003;33067;49.296;14.470;2023-07-02T06:10:55;8;8;
47079;PMS5003;33067;49.296;14.470;2023-07-02T06:13:21;7;7;
47079;PMS5003;33067;49.296;14.470;2023-07-02T06:15:46;6;6;
47079;PMS5003;33067;49.296;14.470;2023-07-02T06:18:12;5;5;
47079;PMS5003;33067;49.296;14.470;2023-07-02T06:20:38;5;5;
47079;PMS5003;33067;49.296;14.470;2023-07-02T06:23:04;4;4;
47079;PMS5003;33067;49.296;14.470;2023-07-02T06:25:29;5;5;
47079;PMS5003;33067;49.296;14.470;2023-07-02T06:27:55;6;6;
47079;PMS5003;33067;49.296;14.470;2023-07-02T06:30:21;6;6;
47079;PMS5003;33067;49.296;14.470;2023-07-02T06:32:49;6;6;
47079;PMS5003;33067;49.296;14.470;2023-07-02T06:35:13;5;5;
47079;PMS5003;33067;49.296;14.470;2023-07-02T06:37:38;3;3;
47079;PMS5003;33067;49.296;14.470;2023-07-02T06:40:05;4;4;
47079;PMS5003;33067;49.296;14.470;2023-07-02T06:42:30;6;6;
47079;PMS5003;33067;49.296;14.470;2023-07-02T06:44:56;5;5;
47079;PMS5003;33067;49.296;14.470;2023-07-02T06:47:21;5;5;
47079;PMS5003;33067;49.296;14.470;2023-07-02T06:49:47;7;7;
47079;PMS5003;33067;49.296;14.470;2023-07-02T06:52:13;6;6;
47079;PMS5003;33067;49.296;14.470;2023-07-02T06:54:39;4;4;
47079;PMS5003;33067;49.296;14.470;2023-07-02T06:57:04;8;6;
47079;PMS5003;33067;49.296;14.470;2023-07-02T06:59:30;4;4;
47079;PMS5003;33067;49.296;14.470;2023-07-02T07:01:56;7;5;
47079;PMS5003;33067;49.296;14.470;2023-07-02T07:04:22;5;5;
47079;PMS5003;33067;49.296;14.470;2023-07-02T07:06:48;4;4;
47079;PMS5003;33067;49.296;14.470;2023-07-02T07:09:13;5;5;
47079;PMS5003;33067;49.296;14.470;2023-07-02T07:11:39;6;6;
47079;PMS5003;33067;49.296;14.470;2023-07-02T07:14:05;5;5;
47079;PMS5003;33067;49.296;14.470;2023-07-02T07:16:31;6;5;
47079;PMS5003;33067;49.296;14.470;2023-07-02T07:18:56;6;6;
47079;PMS5003;33067;49.296;14.470;2023-07-02T07:21:22;6;5;
47079;PMS5003;33067;49.296;14.470;2023-07-02T07:23:48;6;6;
47079;PMS5003;33067;49.296;14.470;2023-07-02T07:26:15;7;7;
47079;PMS5003;33067;49.296;14.470;2023-07-02T07:28:40;6;6;
47079;PMS5003;33067;49.296;14.470;2023-07-02T07:31:05;5;5;
47079;PMS5003;33067;49.296;14.470;2023-07-02T07:33:31;6;6;
47079;PMS5003;33067;49.296;14.470;2023-07-02T07:35:57;6;6;
47079;PMS5003;33067;49.296;14.470;2023-07-02T07:38:23;5;5;
47079;PMS5003;33067;49.296;14.470;2023-07-02T07:40:50;6;6;
47079;PMS5003;33067;49.296;14.470;2023-07-02T07:43:14;7;7;
47079;PMS5003;33067;49.296;14.470;2023-07-02T07:45:40;5;5;
47079;PMS5003;33067;49.296;14.470;2023-07-02T07:48:06;7;7;
47079;PMS5003;33067;49.296;14.470;2023-07-02T07:50:31;6;5;
47079;PMS5003;33067;49.296;14.470;2023-07-02T07:52:58;6;6;
47079;PMS5003;33067;49.296;14.470;2023-07-02T07:55:23;7;7;
47079;PMS5003;33067;49.296;14.470;2023-07-02T07:57:49;7;5;
47079;PMS5003;33067;49.296;14.470;2023-07-02T08:00:15;4;4;
47079;PMS5003;33067;49.296;14.470;2023-07-02T08:02:41;6;6;
47079;PMS5003;33067;49.296;14.470;2023-07-02T08:05:06;5;5;
47079;PMS5003;33067;49.296;14.470;2023-07-02T08:07:32;6;6;
47079;PMS5003;33067;49.296;14.470;2023-07-02T08:09:58;8;7;
47079;PMS5003;33067;49.296;14.470;2023-07-02T08:12:24;5;5;
47079;PMS5003;33067;49.296;14.470;2023-07-02T08:14:51;5;5;
47079;PMS5003;33067;49.296;14.470;2023-07-02T08:17:15;4;3;
47079;PMS5003;33067;49.296;14.470;2023-07-02T08:19:41;6;6;
47079;PMS5003;33067;49.296;14.470;2023-07-02T08:22:07;3;3;
47079;PMS5003;33067;49.296;14.470;2023-07-02T08:24:33;4;4;
47079;PMS5003;33067;49.296;14.470;2023-07-02T08:26:58;5;5;
47079;PMS5003;33067;49.296;14.470;2023-07-02T08:29:24;4;4;
47079;PMS5003;33067;49.296;14.470;2023-07-02T08:31:50;5;4;
47079;PMS5003;33067;49.296;14.470;2023-07-02T08:34:16;4;4;
47079;PMS5003;33067;49.296;14.470;2023-07-02T08:36:42;5;5;
47079;PMS5003;33067;49.296;14.470;2023-07-02T08:39:07;4;4;
47079;PMS5003;33067;49.296;14.470;2023-07-02T08:43:59;5;5;
47079;PMS5003;33067;49.296;14.470;2023-07-02T08:46:25;5;5;
47079;PMS5003;33067;49.296;14.470;2023-07-02T08:48:50;4;4;
47079;PMS5003;33067;49.296;14.470;2023-07-02T08:51:16;4;4;
47079;PMS5003;33067;49.296;14.470;2023-07-02T08:53:42;5;5;
47079;PMS5003;33067;49.296;14.470;2023-07-02T08:56:08;3;3;
47079;PMS5003;33067;49.296;14.470;2023-07-02T08:58:34;6;5;
47079;PMS5003;33067;49.296;14.470;2023-07-02T09:01:05;5;5;
47079;PMS5003;33067;49.296;14.470;2023-07-02T09:03:25;6;5;
47079;PMS5003;33067;49.296;14.470;2023-07-02T09:05:51;4;4;
47079;PMS5003;33067;49.296;14.470;2023-07-02T09:10:43;4;4;
47079;PMS5003;33067;49.296;14.470;2023-07-02T09:13:08;5;5;
47079;PMS5003;33067;49.296;14.470;2023-07-02T09:15:36;8;6;
47079;PMS5003;33067;49.296;14.470;2023-07-02T09:18:00;5;5;
47079;PMS5003;33067;49.296;14.470;2023-07-02T09:22:53;6;6;
47079;PMS5003;33067;49.296;14.470;2023-07-02T09:25:19;6;6;
47079;PMS5003;33067;49.296;14.470;2023-07-02T09:27:43;4;4;
47079;PMS5003;33067;49.296;14.470;2023-07-02T09:30:10;5;5;
47079;PMS5003;33067;49.296;14.470;2023-07-02T09:32:35;2;2;
47079;PMS5003;33067;49.296;14.470;2023-07-02T09:35:01;5;5;
47079;PMS5003;33067;49.296;14.470;2023-07-02T09:37:26;4;4;
47079;PMS5003;33067;49.296;14.470;2023-07-02T09:39:52;7;6;
47079;PMS5003;33067;49.296;14.470;2023-07-02T09:42:18;7;7;
47079;PMS5003;33067;49.296;14.470;2023-07-02T09:44:43;11;11;
47079;PMS5003;33067;49.296;14.470;2023-07-02T09:47:09;8;6;
47079;PMS5003;33067;49.296;14.470;2023-07-02T09:49:35;5;5;
47079;PMS5003;33067;49.296;14.470;2023-07-02T09:52:02;6;6;
47079;PMS5003;33067;49.296;14.470;2023-07-02T09:54:26;4;4;
47079;PMS5003;33067;49.296;14.470;2023-07-02T09:56:52;7;6;
47079;PMS5003;33067;49.296;14.470;2023-07-02T09:59:18;7;6;
47079;PMS5003;33067;49.296;14.470;2023-07-02T10:01:43;8;8;
47079;PMS5003;33067;49.296;14.470;2023-07-02T10:04:11;6;6;
47079;PMS5003;33067;49.296;14.470;2023-07-02T10:09:01;8;8;
47079;PMS5003;33067;49.296;14.470;2023-07-02T10:16:17;6;6;
47079;PMS5003;33067;49.296;14.470;2023-07-02T10:18:43;7;7;
47079;PMS5003;33067;49.296;14.470;2023-07-02T10:21:14;7;7;
47079;PMS5003;33067;49.296;14.470;2023-07-02T10:23:34;10;8;
47079;PMS5003;33067;49.296;14.470;2023-07-02T10:28:26;7;7;
47079;PMS5003;33067;49.296;14.470;2023-07-02T10:30:51;8;8;
47079;PMS5003;33067;49.296;14.470;2023-07-02T10:33:17;7;7;
47079;PMS5003;33067;49.296;14.470;2023-07-02T10:35:44;7;7;
47079;PMS5003;33067;49.296;14.470;2023-07-02T10:38:13;11;9;
47079;PMS5003;33067;49.296;14.470;2023-07-02T10:40:34;9;9;
47079;PMS5003;33067;49.296;14.470;2023-07-02T10:43:00;8;8;
47079;PMS5003;33067;49.296;14.470;2023-07-02T10:45:31;8;8;
47079;PMS5003;33067;49.296;14.470;2023-07-02T10:47:51;10;10;
47079;PMS5003;33067;49.296;14.470;2023-07-02T10:50:17;9;8;
47079;PMS5003;33067;49.296;14.470;2023-07-02T10:52:43;8;8;
47079;PMS5003;33067;49.296;14.470;2023-07-02T10:55:08;8;8;
47079;PMS5003;33067;49.296;14.470;2023-07-02T10:57:34;8;8;
47079;PMS5003;33067;49.296;14.470;2023-07-02T11:00:03;9;9;
47079;PMS5003;33067;49.296;14.470;2023-07-02T11:04:51;10;9;
47079;PMS5003;33067;49.296;14.470;2023-07-02T11:07:22;7;7;
47079;PMS5003;33067;49.296;14.470;2023-07-02T11:12:08;11;9;
47079;PMS5003;33067;49.296;14.470;2023-07-02T11:14:34;9;9;
47079;PMS5003;33067;49.296;14.470;2023-07-02T11:17:01;7;7;
47079;PMS5003;33067;49.296;14.470;2023-07-02T11:19:25;9;7;
47079;PMS5003;33067;49.296;14.470;2023-07-02T11:21:52;9;9;
47079;PMS5003;33067;49.296;14.470;2023-07-02T11:24:25;8;7;
47079;PMS5003;33067;49.296;14.470;2023-07-02T11:26:42;9;9;
47079;PMS5003;33067;49.296;14.470;2023-07-02T11:29:10;12;12;
47079;PMS5003;33067;49.296;14.470;2023-07-02T11:31:34;8;8;
47079;PMS5003;33067;49.296;14.470;2023-07-02T11:33:59;11;9;
47079;PMS5003;33067;49.296;14.470;2023-07-02T11:36:25;11;10;
47079;PMS5003;33067;49.296;14.470;2023-07-02T11:38:50;11;7;
47079;PMS5003;33067;49.296;14.470;2023-07-02T11:41:16;9;9;
47079;PMS5003;33067;49.296;14.470;2023-07-02T11:43:42;9;8;
47079;PMS5003;33067;49.296;14.470;2023-07-02T11:46:08;9;8;
47079;PMS5003;33067;49.296;14.470;2023-07-02T11:48:33;9;9;
47079;PMS5003;33067;49.296;14.470;2023-07-02T11:50:59;9;9;
47079;PMS5003;33067;49.296;14.470;2023-07-02T11:53:25;9;8;
47079;PMS5003;33067;49.296;14.470;2023-07-02T11:55:51;10;8;
47079;PMS5003;33067;49.296;14.470;2023-07-02T11:58:16;12;8;
47079;PMS5003;33067;49.296;14.470;2023-07-02T12:00:42;10;10;
47079;PMS5003;33067;49.296;14.470;2023-07-02T12:03:07;8;8;
47079;PMS5003;33067;49.296;14.470;2023-07-02T12:05:33;9;9;
47079;PMS5003;33067;49.296;14.470;2023-07-02T12:07:58;10;10;
47079;PMS5003;33067;49.296;14.470;2023-07-02T12:10:24;12;12;
47079;PMS5003;33067;49.296;14.470;2023-07-02T12:12:49;9;9;
47079;PMS5003;33067;49.296;14.470;2023-07-02T12:15:15;46;46;
47079;PMS5003;33067;49.296;14.470;2023-07-02T12:17:41;24;23;
47079;PMS5003;33067;49.296;14.470;2023-07-02T12:20:07;42;40;
47079;PMS5003;33067;49.296;14.470;2023-07-02T12:22:32;34;34;
47079;PMS5003;33067;49.296;14.470;2023-07-02T12:24:57;20;19;
47079;PMS5003;33067;49.296;14.470;2023-07-02T12:27:23;29;28;
47079;PMS5003;33067;49.296;14.470;2023-07-02T12:29:48;22;20;
47079;PMS5003;33067;49.296;14.470;2023-07-02T12:32:13;23;23;
47079;PMS5003;33067;49.296;14.470;2023-07-02T12:34:39;16;16;
47079;PMS5003;33067;49.296;14.470;2023-07-02T12:37:05;28;28;
47079;PMS5003;33067;49.296;14.470;2023-07-02T12:39:30;35;34;
47079;PMS5003;33067;49.296;14.470;2023-07-02T12:41:55;23;23;
47079;PMS5003;33067;49.296;14.470;2023-07-02T12:44:21;23;20;
47079;PMS5003;33067;49.296;14.470;2023-07-02T12:46:47;21;19;
47079;PMS5003;33067;49.296;14.470;2023-07-02T12:49:12;20;20;
47079;PMS5003;33067;49.296;14.470;2023-07-02T12:51:37;23;23;
47079;PMS5003;33067;49.296;14.470;2023-07-02T12:54:03;24;23;
47079;PMS5003;33067;49.296;14.470;2023-07-02T12:56:29;21;21;
47079;PMS5003;33067;49.296;14.470;2023-07-02T12:58:55;21;19;
47079;PMS5003;33067;49.296;14.470;2023-07-02T13:01:20;20;17;
47079;PMS5003;33067;49.296;14.470;2023-07-02T13:03:46;11;10;
47079;PMS5003;33067;49.296;14.470;2023-07-02T13:06:11;14;14;
47079;PMS5003;33067;49.296;14.470;2023-07-02T13:08:37;16;13;
47079;PMS5003;33067;49.296;14.470;2023-07-02T13:11:03;22;21;
47079;PMS5003;33067;49.296;14.470;2023-07-02T13:13:28;16;16;
47079;PMS5003;33067;49.296;14.470;2023-07-02T13:15:54;16;14;
47079;PMS5003;33067;49.296;14.470;2023-07-02T13:18:19;19;19;
47079;PMS5003;33067;49.296;14.470;2023-07-02T13:20:45;19;19;
47079;PMS5003;33067;49.296;14.470;2023-07-02T13:23:10;19;18;
47079;PMS5003;33067;49.296;14.470;2023-07-02T13:25:36;17;14;
47079;PMS5003;33067;49.296;14.470;2023-07-02T13:28:03;15;14;
47079;PMS5003;33067;49.296;14.470;2023-07-02T13:30:27;13;12;
47079;PMS5003;33067;49.296;14.470;2023-07-02T13:32:53;24;24;
47079;PMS5003;33067;49.296;14.470;2023-07-02T13:35:19;14;11;
47079;PMS5003;33067;49.296;14.470;2023-07-02T13:37:44;13;13;
47079;PMS5003;33067;49.296;14.470;2023-07-02T13:40:10;12;12;
47079;PMS5003;33067;49.296;14.470;2023-07-02T13:42:36;12;12;
47079;PMS5003;33067;49.296;14.470;2023-07-02T13:45:01;11;11;
47079;PMS5003;33067;49.296;14.470;2023-07-02T13:47:27;11;11;
47079;PMS5003;33067;49.296;14.470;2023-07-02T13:49:52;37;37;
47079;PMS5003;33067;49.296;14.470;2023-07-02T13:52:18;21;19;
47079;PMS5003;33067;49.296;14.470;2023-07-02T13:54:43;25;23;
47079;PMS5003;33067;49.296;14.470;2023-07-02T13:57:09;37;32;
47079;PMS5003;33067;49.296;14.470;2023-07-02T13:59:34;78;75;
47079;PMS5003;33067;49.296;14.470;2023-07-02T14:01:59;33;33;
47079;PMS5003;33067;49.296;14.470;2023-07-02T14:04:24;34;32;
47079;PMS5003;33067;49.296;14.470;2023-07-02T14:06:50;25;24;
47079;PMS5003;33067;49.296;14.470;2023-07-02T14:09:15;32;29;
47079;PMS5003;33067;49.296;14.470;2023-07-02T14:11:41;17;17;
47079;PMS5003;33067;49.296;14.470;2023-07-02T14:14:06;23;22;
47079;PMS5003;33067;49.296;14.470;2023-07-02T14:16:32;35;34;
47079;PMS5003;33067;49.296;14.470;2023-07-02T14:18:57;24;24;
47079;PMS5003;33067;49.296;14.470;2023-07-02T14:21:22;140;138;
47079;PMS5003;33067;49.296;14.470;2023-07-02T14:23:48;54;54;
47079;PMS5003;33067;49.296;14.470;2023-07-02T14:26:14;41;40;
47079;PMS5003;33067;49.296;14.470;2023-07-02T14:28:40;14;14;
47079;PMS5003;33067;49.296;14.470;2023-07-02T14:31:06;58;57;
47079;PMS5003;33067;49.296;14.470;2023-07-02T14:33:33;24;24;
47079;PMS5003;33067;49.296;14.470;2023-07-02T14:35:57;12;11;
47079;PMS5003;33067;49.296;14.470;2023-07-02T14:38:22;14;13;
47079;PMS5003;33067;49.296;14.470;2023-07-02T14:40:48;15;15;
47079;PMS5003;33067;49.296;14.470;2023-07-02T14:43:13;43;42;
47079;PMS5003;33067;49.296;14.470;2023-07-02T14:45:42;15;15;
47079;PMS5003;33067;49.296;14.470;2023-07-02T14:48:05;32;31;
47079;PMS5003;33067;49.296;14.470;2023-07-02T14:50:30;18;18;
47079;PMS5003;33067;49.296;14.470;2023-07-02T14:52:56;35;34;
47079;PMS5003;33067;49.296;14.470;2023-07-02T14:55:21;23;22;
47079;PMS5003;33067;49.296;14.470;2023-07-02T14:57:47;19;19;
47079;PMS5003;33067;49.296;14.470;2023-07-02T15:00:13;27;27;
47079;PMS5003;33067;49.296;14.470;2023-07-02T15:02:38;27;26;
47079;PMS5003;33067;49.296;14.470;2023-07-02T15:05:04;23;21;
47079;PMS5003;33067;49.296;14.470;2023-07-02T15:07:30;16;15;
47079;PMS5003;33067;49.296;14.470;2023-07-02T15:09:56;16;15;
47079;PMS5003;33067;49.296;14.470;2023-07-02T15:12:21;13;13;
47079;PMS5003;33067;49.296;14.470;2023-07-02T15:14:47;12;12;
47079;PMS5003;33067;49.296;14.470;2023-07-02T15:17:13;14;14;
47079;PMS5003;33067;49.296;14.470;2023-07-02T15:19:38;13;13;
47079;PMS5003;33067;49.296;14.470;2023-07-02T15:22:04;12;11;
47079;PMS5003;33067;49.296;14.470;2023-07-02T15:24:29;23;23;
47079;PMS5003;33067;49.296;14.470;2023-07-02T15:26:55;21;19;
47079;PMS5003;33067;49.296;14.470;2023-07-02T15:29:21;19;19;
47079;PMS5003;33067;49.296;14.470;2023-07-02T15:31:46;21;20;
47079;PMS5003;33067;49.296;14.470;2023-07-02T15:34:12;20;20;
47079;PMS5003;33067;49.296;14.470;2023-07-02T15:36:38;16;16;
47079;PMS5003;33067;49.296;14.470;2023-07-02T15:39:04;16;16;
47079;PMS5003;33067;49.296;14.470;2023-07-02T15:41:29;17;17;
47079;PMS5003;33067;49.296;14.470;2023-07-02T15:43:55;18;17;
47079;PMS5003;33067;49.296;14.470;2023-07-02T15:46:21;14;14;
47079;PMS5003;33067;49.296;14.470;2023-07-02T15:48:47;15;15;
47079;PMS5003;33067;49.296;14.470;2023-07-02T15:51:12;14;14;
47079;PMS5003;33067;49.296;14.470;2023-07-02T15:53:39;17;16;
47079;PMS5003;33067;49.296;14.470;2023-07-02T15:56:09;15;15;
47079;PMS5003;33067;49.296;14.470;2023-07-02T15:58:30;10;10;
47079;PMS5003;33067;49.296;14.470;2023-07-02T16:00:56;15;14;
47079;PMS5003;33067;49.296;14.470;2023-07-02T16:03:21;13;13;
47079;PMS5003;33067;49.296;14.470;2023-07-02T16:05:47;14;14;
47079;PMS5003;33067;49.296;14.470;2023-07-02T16:08:13;16;15;
47079;PMS5003;33067;49.296;14.470;2023-07-02T16:10:40;16;16;
47079;PMS5003;33067;49.296;14.470;2023-07-02T16:13:03;22;21;
47079;PMS5003;33067;49.296;14.470;2023-07-02T16:15:29;23;22;
47079;PMS5003;33067;49.296;14.470;2023-07-02T16:17:55;16;16;
47079;PMS5003;33067;49.296;14.470;2023-07-02T16:20:20;10;10;
47079;PMS5003;33067;49.296;14.470;2023-07-02T16:22:46;11;10;
47079;PMS5003;33067;49.296;14.470;2023-07-02T16:25:12;10;9;
47079;PMS5003;33067;49.296;14.470;2023-07-02T16:27:38;10;10;
47079;PMS5003;33067;49.296;14.470;2023-07-02T16:30:04;11;10;